Time;durP1;ratioP1;P1;durP2;ratioP2;P2;SDS_P1;SDS_P2;PMS_P1;PMS_P2;Temp;Humidity;BMP_temperature;BMP_pressure;BME280_temperature;BME280_humidity;BME280_pressure;Samples;Min_cycle;Max_cycle;Signal;HPM_P1;HPM_P2
2022/05/09 00:00:32;;;;;;;12.02;3.28;;;11.90;99.90;;;;;;4164450;28;20178;-94
2022/05/09 00:02:33;;;;;;;17.52;3.53;;;12.20;99.90;;;;;;4148387;28;20231;-95
2022/05/09 00:04:34;;;;;;;10.70;3.53;;;12.40;99.90;;;;;;4147767;28;20180;-95
2022/05/09 00:06:35;;;;;;;9.77;3.25;;;12.50;99.90;;;;;;4181341;28;20179;-94
2022/05/09 00:08:39;;;;;;;13.30;3.70;;;12.40;99.90;;;;;;4167669;28;20270;-94
2022/05/09 00:10:40;;;;;;;12.65;3.47;;;12.40;99.90;;;;;;4151451;28;20211;-95
2022/05/09 00:12:42;;;;;;;19.73;3.40;;;12.30;99.90;;;;;;4167662;28;20178;-96
2022/05/09 00:14:43;;;;;;;8.77;2.88;;;12.20;99.90;;;;;;4151111;28;20180;-94
2022/05/09 00:16:44;;;;;;;9.13;2.95;;;12.00;99.90;;;;;;4151065;28;20176;-94
2022/05/09 00:18:45;;;;;;;11.35;3.38;;;12.00;99.90;;;;;;4167061;28;20355;-94
2022/05/09 00:20:46;;;;;;;13.77;2.70;;;12.10;99.90;;;;;;4167170;28;20176;-95
2022/05/09 00:22:55;;;;;;;14.30;3.47;;;12.10;99.90;;;;;;4167605;28;20164;-95
2022/05/09 00:25:02;;;;;;;13.50;3.22;;;12.10;99.90;;;;;;4167413;28;20589;-96
2022/05/09 00:27:03;;;;;;;10.07;2.90;;;12.10;99.90;;;;;;4167416;28;20339;-95
2022/05/09 00:29:09;;;;;;;16.35;3.00;;;12.10;99.90;;;;;;4183708;28;20199;-95
2022/05/09 00:31:13;;;;;;;9.55;3.10;;;11.90;99.90;;;;;;4167563;28;20778;-95
2022/05/09 00:33:30;;;;;;;;;;;;;;;;;;;;;
2022/05/09 00:35:31;;;;;;;7.70;2.85;;;11.70;99.90;;;;;;4167361;28;20203;-95
2022/05/09 00:37:33;;;;;;;12.15;3.40;;;11.60;99.90;;;;;;4166987;28;20259;-94
2022/05/09 00:39:33;;;;;;;11.10;3.30;;;11.60;99.90;;;;;;4151291;28;20780;-94
2022/05/09 00:41:37;;;;;;;8.63;3.20;;;11.70;99.90;;;;;;4167416;28;20176;-95
2022/05/09 00:43:39;;;;;;;10.80;3.25;;;12.00;99.90;;;;;;4151089;28;20175;-95
2022/05/09 00:45:40;;;;;;;9.00;3.40;;;12.10;99.90;;;;;;4167241;28;20176;-94
2022/05/09 00:47:41;;;;;;;9.35;3.35;;;12.30;99.90;;;;;;4167759;28;20260;-96
2022/05/09 00:49:54;;;;;;;11.02;3.38;;;12.40;99.90;;;;;;4167037;28;20188;-96
2022/05/09 00:52:27;;;;;;;9.27;2.90;;;12.50;99.90;;;;;;4151571;28;20212;-95
2022/05/09 00:54:43;;;;;;;17.27;3.50;;;12.30;99.90;;;;;;4152779;28;20332;-94
2022/05/09 00:57:00;;;;;;;;;;;;;;;;;;;;;
2022/05/09 00:59:09;;;;;;;9.67;3.40;;;12.20;99.90;;;;;;4183397;28;20187;-96
2022/05/09 01:01:12;;;;;;;9.93;3.27;;;12.20;99.90;;;;;;4167231;28;20169;-94
2022/05/09 01:03:23;;;;;;;10.57;3.33;;;12.10;99.90;;;;;;4167001;28;20184;-94
2022/05/09 01:05:30;;;;;;;12.93;3.03;;;12.10;99.90;;;;;;4167768;28;20164;-94
2022/05/09 01:07:33;;;;;;;9.05;3.25;;;12.40;99.90;;;;;;4151273;28;20176;-94
2022/05/09 01:09:34;;;;;;;11.53;3.23;;;12.50;99.90;;;;;;4168994;28;20188;-94
2022/05/09 01:11:42;;;;;;;11.70;3.73;;;12.50;99.90;;;;;;4153229;28;20248;-95
2022/05/09 01:13:50;;;;;;;15.00;3.27;;;12.50;99.90;;;;;;4169532;28;20243;-94
2022/05/09 01:15:53;;;;;;;13.53;3.43;;;12.50;99.90;;;;;;4167797;28;20179;-94
2022/05/09 01:17:58;;;;;;;15.30;3.50;;;12.40;99.90;;;;;;4168665;28;20168;-95
2022/05/09 01:20:01;;;;;;;10.27;3.78;;;12.30;99.90;;;;;;4184190;28;20195;-95
2022/05/09 01:22:03;;;;;;;8.38;3.60;;;12.30;99.90;;;;;;4166797;28;20176;-95
2022/05/09 01:24:13;;;;;;;10.77;3.30;;;12.20;99.90;;;;;;4166646;28;20652;-95
2022/05/09 01:26:14;;;;;;;14.47;3.67;;;12.20;99.90;;;;;;4150345;28;20176;-95
2022/05/09 01:28:15;;;;;;;11.80;3.80;;;12.20;99.90;;;;;;4182856;28;20172;-94
2022/05/09 01:30:40;;;;;;;13.70;3.92;;;12.00;99.90;;;;;;4149669;28;20220;-95
2022/05/09 01:32:58;;;;;;;11.98;3.58;;;11.70;99.90;;;;;;4149419;28;20177;-94
2022/05/09 01:35:17;;;;;;;9.77;3.37;;;11.50;99.90;;;;;;4149794;28;20316;-96
2022/05/09 01:37:21;;;;;;;8.57;3.10;;;11.30;99.90;;;;;;4150253;28;20541;-95
2022/05/09 01:39:24;;;;;;;12.03;3.70;;;11.10;99.90;;;;;;4166442;28;20192;-94
2022/05/09 01:41:29;;;;;;;15.17;4.00;;;11.00;99.90;;;;;;4150267;28;20173;-94
2022/05/09 01:43:40;;;;;;;14.97;4.10;;;11.10;99.90;;;;;;4149939;28;20176;-94
2022/05/09 01:45:41;;;;;;;14.80;3.90;;;11.10;99.90;;;;;;4166529;28;20218;-94
2022/05/09 01:50:07;;;;;;;10.40;3.97;;;11.20;99.90;;;;;;4167104;28;20258;-94
2022/05/09 01:52:14;;;;;;;15.33;4.37;;;11.40;99.90;;;;;;4171838;28;20180;-94
2022/05/09 01:54:16;;;;;;;14.60;3.73;;;11.30;99.90;;;;;;4172899;28;20175;-95
2022/05/09 01:56:31;;;;;;;11.83;4.23;;;11.20;99.90;;;;;;4176992;28;20431;-95
2022/05/09 01:58:32;;;;;;;8.13;3.70;;;11.40;99.90;;;;;;4180873;28;20168;-95
2022/05/09 02:00:33;;;;;;;11.53;4.03;;;11.40;99.90;;;;;;4161287;28;20169;-95
2022/05/09 02:02:34;;;;;;;10.83;4.20;;;11.50;99.90;;;;;;4172220;28;20226;-94
2022/05/09 02:04:40;;;;;;;13.57;4.03;;;11.70;99.90;;;;;;4171487;28;20175;-94
2022/05/09 02:06:41;;;;;;;13.07;3.90;;;11.80;99.90;;;;;;4171107;28;20169;-95
2022/05/09 02:08:53;;;;;;;;;;;;;;;;;;;;;
2022/05/09 02:10:55;;;;;;;10.80;3.90;;;12.00;99.90;;;;;;4171214;28;20212;-94
2022/05/09 02:13:21;;;;;;;13.13;4.27;;;12.00;99.90;;;;;;4152777;28;20173;-94
2022/05/09 02:15:32;;;;;;;;;;;;;;;;;;;;;
2022/05/09 02:20:29;;;;;;;11.93;4.67;;;12.30;99.90;;;;;;4166263;28;20180;-95
2022/05/09 02:26:24;;;;;;;;;;;;;;;;;;;;;
2022/05/09 02:31:58;;;;;;;11.10;4.90;;;12.10;99.90;;;;;;4162227;28;20219;-94
2022/05/09 02:34:02;;;;;;;13.93;4.33;;;12.10;99.90;;;;;;4164994;28;20184;-94
2022/05/09 02:36:03;;;;;;;9.93;4.10;;;11.90;99.90;;;;;;4149168;28;20216;-94
2022/05/09 02:38:05;;;;;;;9.57;4.17;;;11.80;99.90;;;;;;4149496;28;20215;-94
2022/05/09 02:40:07;;;;;;;12.07;4.53;;;11.90;99.90;;;;;;4149345;28;20220;-94
2022/05/09 02:42:08;;;;;;;11.80;4.80;;;11.90;99.90;;;;;;4148489;28;20184;-95
2022/05/09 02:44:12;;;;;;;14.53;4.00;;;12.10;99.90;;;;;;4165632;28;20645;-93
2022/05/09 02:46:28;;;;;;;17.67;4.57;;;12.20;99.90;;;;;;4148841;28;20180;-95
2022/05/09 02:48:44;;;;;;;10.53;4.47;;;12.00;99.90;;;;;;4148315;28;20216;-96
2022/05/09 02:50:48;;;;;;;11.27;4.70;;;11.70;99.90;;;;;;4149145;28;20212;-94
2022/05/09 02:52:51;;;;;;;7.50;4.07;;;11.40;99.90;;;;;;4165181;28;20215;-94
2022/05/09 02:54:52;;;;;;;13.57;4.37;;;11.20;99.90;;;;;;4147779;28;20185;-95
2022/05/09 02:56:55;;;;;;;10.80;4.20;;;10.90;99.90;;;;;;4148501;28;20685;-94
2022/05/09 02:58:58;;;;;;;13.90;4.57;;;10.70;99.90;;;;;;4148789;28;20692;-94
2022/05/09 03:01:05;;;;;;;17.37;4.57;;;10.70;99.90;;;;;;4149611;28;20173;-95
2022/05/09 03:05:45;;;;;;;;;;;;;;;;;;;;;
2022/05/09 03:07:52;;;;;;;10.10;4.40;;;10.50;99.90;;;;;;4181457;28;20209;-95
2022/05/09 03:09:56;;;;;;;12.80;4.43;;;10.40;99.90;;;;;;4148343;28;20604;-93
2022/05/09 03:12:02;;;;;;;11.97;4.67;;;10.50;99.90;;;;;;4148668;28;20307;-94
2022/05/09 03:14:06;;;;;;;11.23;4.07;;;10.60;99.90;;;;;;4149289;28;20173;-94
2022/05/09 03:16:09;;;;;;;12.23;4.33;;;10.80;99.90;;;;;;4148339;28;20272;-93
2022/05/09 03:18:18;;;;;;;17.23;5.13;;;10.70;99.90;;;;;;4149821;28;20169;-93
2022/05/09 03:20:30;;;;;;;18.77;4.50;;;10.80;99.90;;;;;;4150712;28;20183;-95
2022/05/09 03:22:34;;;;;;;15.93;4.70;;;10.90;99.90;;;;;;4165445;28;20168;-94
2022/05/09 03:24:36;;;;;;;15.90;5.27;;;11.10;99.90;;;;;;4166227;28;20182;-94
2022/05/09 03:26:40;;;;;;;18.30;4.90;;;11.20;99.90;;;;;;4165692;28;20183;-95
2022/05/09 03:28:44;;;;;;;13.47;5.07;;;11.40;99.90;;;;;;4149337;28;20192;-95
2022/05/09 03:31:14;;;;;;;;;;;;;;;;;;;;;
2022/05/09 03:33:26;;;;;;;;;;;;;;;;;;;;;
2022/05/09 03:35:59;;;;;;;;;;;;;;;;;;;;;
2022/05/09 03:38:27;;;;;;;12.73;5.30;;;11.70;99.90;;;;;;4170424;28;20180;-95
2022/05/09 03:43:12;;;;;;;17.33;4.93;;;11.80;99.90;;;;;;4141120;28;20187;-94
2022/05/09 03:45:16;;;;;;;20.20;5.87;;;11.70;99.90;;;;;;4152047;28;20176;-94
2022/05/09 03:51:22;;;;;;;9.93;4.20;;;11.70;99.90;;;;;;4151707;28;20242;-94
2022/05/09 03:53:49;;;;;;;12.93;4.80;;;11.70;99.90;;;;;;4154252;28;20180;-94
2022/05/09 03:56:08;;;;;;;14.47;5.47;;;11.70;99.90;;;;;;4165004;28;20177;-93
2022/05/09 03:58:09;;;;;;;17.97;5.30;;;11.60;99.90;;;;;;4149241;28;20218;-94
2022/05/09 04:00:25;;;;;;;15.53;4.93;;;11.50;99.90;;;;;;4165363;28;20232;-94
2022/05/09 04:02:41;;;;;;;;;;;;;;;;;;;;;
2022/05/09 04:05:41;;;;;;;21.50;6.00;;;11.40;99.90;;;;;;4164104;28;20206;-94
2022/05/09 04:11:47;;;;;;;19.87;5.30;;;11.50;99.90;;;;;;4161330;28;20223;-96
2022/05/09 04:16:49;;;;;;;12.87;5.13;;;11.30;99.90;;;;;;4099501;28;20182;-94
2022/05/09 04:16:53;;;;;;;11.83;4.97;;;11.60;99.90;;;;;;4115128;28;20185;-95
2022/05/09 04:19:03;;;;;;;15.43;5.63;;;11.90;99.90;;;;;;4099109;29;20203;-93
2022/05/09 04:21:10;;;;;;;13.23;5.93;;;11.90;99.90;;;;;;4103607;28;20183;-93
2022/05/09 04:23:11;;;;;;;14.37;5.00;;;11.90;99.90;;;;;;4148618;28;20216;-94
2022/05/09 04:25:15;;;;;;;17.13;5.90;;;11.80;99.90;;;;;;4148433;28;20288;-94
2022/05/09 04:27:18;;;;;;;13.53;5.43;;;11.80;99.90;;;;;;4148565;28;20181;-95
2022/05/09 04:32:44;;;;;;;14.83;6.23;;;11.60;99.90;;;;;;4163604;28;20576;-94
2022/05/09 04:34:56;;;;;;;12.53;5.67;;;11.50;99.90;;;;;;4164954;28;20207;-94
2022/05/09 04:37:32;;;;;;;;;;;;;;;;;;;;;
2022/05/09 04:40:08;;;;;;;16.20;6.37;;;11.60;99.90;;;;;;4165619;28;20275;-95
2022/05/09 04:43:00;;;;;;;16.17;5.50;;;11.60;99.90;;;;;;4164389;28;20185;-94
2022/05/09 04:45:21;;;;;;;14.97;6.60;;;11.70;99.90;;;;;;4178542;28;20241;-94
2022/05/09 04:48:17;;;;;;;12.00;6.23;;;11.80;99.90;;;;;;4166579;28;20536;-94
2022/05/09 04:54:19;;;;;;;;;;;;;;;;;;;;;
2022/05/09 05:08:38;;;;;;;;;;;;;;;;;;;;;
2022/05/09 05:11:12;;;;;;;19.93;5.47;;;11.90;99.90;;;;;;4169463;28;20247;-94
2022/05/09 05:14:00;;;;;;;14.73;5.57;;;12.40;99.90;;;;;;4167821;28;20195;-94
2022/05/09 05:16:05;;;;;;;16.57;6.27;;;12.50;99.90;;;;;;4151214;28;20177;-95
2022/05/09 05:18:18;;;;;;;17.90;5.70;;;12.50;99.90;;;;;;4167830;28;20182;-94
2022/05/09 05:20:49;;;;;;;;;;;;;;;;;;;;;
2022/05/09 05:23:12;;;;;;;15.13;5.90;;;12.20;99.90;;;;;;4168033;28;20190;-94
2022/05/09 05:25:44;;;;;;;15.27;5.90;;;12.20;99.90;;;;;;4167230;28;20172;-95
2022/05/09 05:28:11;;;;;;;;;;;;;;;;;;;;;
2022/05/09 05:30:39;;;;;;;;;;;;;;;;;;;;;
2022/05/09 05:33:21;;;;;;;19.07;6.27;;;12.60;99.90;;;;;;4167352;28;20271;-95
2022/05/09 05:35:34;;;;;;;12.53;5.57;;;12.60;99.90;;;;;;4166284;28;20222;-96
2022/05/09 05:37:40;;;;;;;13.87;5.63;;;12.70;99.90;;;;;;4150168;28;20179;-94
2022/05/09 05:39:58;;;;;;;15.73;6.47;;;12.80;99.90;;;;;;4150430;28;20715;-95
2022/05/09 05:45:41;;;;;;;18.40;6.90;;;12.70;99.90;;;;;;4140688;28;20243;-94
2022/05/09 05:48:12;;;;;;;16.30;6.03;;;12.50;99.90;;;;;;4167599;28;20164;-95
2022/05/09 05:51:28;;;;;;;;;;;;;;;;;;;;;
2022/05/09 05:58:12;;;;;;;;;;;;;;;;;;;;;
2022/05/09 06:07:28;;;;;;;;;;;;;;;;;;;;;
2022/05/09 06:10:31;;;;;;;13.02;5.68;;;12.80;99.90;;;;;;4165570;28;20216;-95
2022/05/09 06:14:04;;;;;;;15.07;5.60;;;12.70;99.90;;;;;;4151968;28;20196;-95
2022/05/09 06:16:40;;;;;;;;;;;;;;;;;;;;;
2022/05/09 06:19:11;;;;;;;17.30;5.70;;;13.50;99.90;;;;;;4169267;28;20200;-96
2022/05/09 06:21:27;;;;;;;;;;;;;;;;;;;;;
2022/05/09 06:23:57;;;;;;;17.80;5.20;;;13.60;99.90;;;;;;4170079;28;20572;-96
2022/05/09 07:28:34;;;;;;;21.40;4.63;;;27.10;99.90;;;;;;4146583;28;20212;-95
2022/05/09 07:30:42;;;;;;;10.90;4.18;;;27.10;99.90;;;;;;4147472;28;20177;-94
2022/05/09 07:32:51;;;;;;;13.85;4.13;;;27.50;99.90;;;;;;4147960;28;20164;-95
2022/05/09 07:34:53;;;;;;;13.35;4.40;;;27.60;99.90;;;;;;4131941;28;20208;-95
2022/05/09 07:36:56;;;;;;;17.08;4.60;;;27.60;99.90;;;;;;4147866;28;20164;-95
2022/05/09 07:39:00;;;;;;;13.98;4.30;;;28.10;99.90;;;;;;4147701;28;20189;-95
2022/05/09 07:41:01;;;;;;;16.00;4.43;;;29.20;99.90;;;;;;4147529;28;20192;-95
2022/05/09 07:43:08;;;;;;;13.95;4.85;;;28.80;99.90;;;;;;4131350;28;20264;-94
2022/05/09 07:45:14;;;;;;;16.38;4.65;;;29.00;99.90;;;;;;4147804;28;20171;-96
2022/05/09 07:47:15;;;;;;;13.13;4.55;;;29.00;99.90;;;;;;4147492;28;20184;-96
2022/05/09 07:49:16;;;;;;;13.25;5.00;;;28.50;99.90;;;;;;4147523;28;20665;-95
2022/05/09 07:51:20;;;;;;;10.05;4.30;;;28.90;99.90;;;;;;4131659;28;20205;-93
2022/05/09 07:53:23;;;;;;;10.55;4.25;;;29.40;99.90;;;;;;4147692;28;20570;-95
2022/05/09 07:55:25;;;;;;;17.23;4.50;;;29.40;99.90;;;;;;4147708;28;20556;-95
2022/05/09 07:57:28;;;;;;;12.05;4.32;;;29.10;99.90;;;;;;4147452;28;20204;-95
2022/05/09 07:59:29;;;;;;;13.02;4.53;;;28.30;99.90;;;;;;4131377;28;20225;-94
2022/05/09 08:01:30;;;;;;;11.88;3.70;;;27.40;99.90;;;;;;4147531;28;20263;-95
2022/05/09 08:03:34;;;;;;;17.63;4.35;;;26.40;99.90;;;;;;4131534;28;20216;-95
2022/05/09 08:05:35;;;;;;;12.82;3.50;;;26.60;99.90;;;;;;4131374;28;20165;-95
2022/05/09 08:07:38;;;;;;;10.18;3.17;;;26.10;99.90;;;;;;4131386;28;20188;-93
2022/05/09 08:09:39;;;;;;;15.88;3.42;;;26.50;99.90;;;;;;4131554;28;20276;-96
2022/05/09 08:11:41;;;;;;;13.85;3.28;;;26.50;99.90;;;;;;4146985;28;20577;-95
2022/05/09 08:13:44;;;;;;;11.85;3.15;;;25.70;99.90;;;;;;4131212;28;20556;-93
2022/05/09 08:15:46;;;;;;;11.23;3.20;;;25.40;99.90;;;;;;4147747;28;20659;-95
2022/05/09 08:17:50;;;;;;;7.15;2.80;;;25.30;99.90;;;;;;4147987;28;20235;-94
2022/05/09 08:19:55;;;;;;;6.07;2.40;;;25.50;99.90;;;;;;4147917;28;20640;-94
2022/05/09 08:22:04;;;;;;;14.98;2.72;;;25.10;99.90;;;;;;4131408;28;20185;-94
2022/05/09 08:24:08;;;;;;;13.02;2.63;;;25.10;99.90;;;;;;4147207;28;20199;-96
2022/05/09 08:26:12;;;;;;;7.65;2.30;;;24.90;99.90;;;;;;4148800;28;20200;-95
2022/05/09 08:28:17;;;;;;;8.65;2.33;;;25.50;99.90;;;;;;4132857;28;20215;-95
2022/05/09 08:30:21;;;;;;;10.15;2.45;;;25.70;99.90;;;;;;4151088;28;20179;-95
2022/05/09 08:32:27;;;;;;;10.50;2.03;;;25.10;99.90;;;;;;4150412;28;20217;-94
2022/05/09 08:34:28;;;;;;;13.80;2.38;;;25.10;99.90;;;;;;4135170;28;20161;-93
2022/05/09 08:36:49;;;;;;;8.63;2.13;;;25.40;99.90;;;;;;4136682;28;20205;-94
2022/05/09 08:38:50;;;;;;;6.35;2.08;;;25.70;99.90;;;;;;4139712;23;20225;-91
2022/05/09 08:41:08;;;;;;;10.82;2.35;;;25.60;99.90;;;;;;4133654;28;20174;-91
2022/05/09 08:43:30;;;;;;;6.25;1.90;;;26.10;99.90;;;;;;4117529;28;20662;-92
2022/05/09 08:45:37;;;;;;;7.85;1.83;;;26.90;99.90;;;;;;4117398;28;20170;-95
2022/05/09 08:48:08;;;;;;;7.28;1.63;;;26.00;99.90;;;;;;4133775;28;20534;-93
2022/05/09 08:50:50;;;;;;;10.57;1.83;;;25.90;99.90;;;;;;4133304;28;20205;-90
2022/05/09 08:53:15;;;;;;;5.72;1.42;;;26.40;99.90;;;;;;4104341;28;20198;-91
2022/05/09 08:55:23;;;;;;;5.30;1.67;;;25.90;99.90;;;;;;4133292;28;20199;-91
2022/05/09 08:57:34;;;;;;;5.18;1.20;;;26.50;99.90;;;;;;4133260;28;20184;-91
2022/05/09 08:59:46;;;;;;;9.52;1.40;;;26.40;99.90;;;;;;4133162;28;20181;-91
2022/05/09 09:01:55;;;;;;;5.38;1.30;;;26.40;99.90;;;;;;4149272;28;20247;-90
2022/05/09 09:04:06;;;;;;;5.53;1.50;;;26.80;99.90;;;;;;4133815;28;20185;-91
2022/05/09 09:06:47;;;;;;;8.00;1.50;;;26.00;99.90;;;;;;4133141;28;20173;-91
2022/05/09 09:09:07;;;;;;;8.23;2.00;;;26.10;99.90;;;;;;4133271;28;20202;-90
2022/05/09 09:11:18;;;;;;;5.18;1.50;;;26.30;99.90;;;;;;4133056;28;20202;-93
2022/05/09 09:13:36;;;;;;;8.60;1.60;;;25.70;99.90;;;;;;4132947;28;20566;-90
2022/05/09 09:16:02;;;;;;;5.10;1.35;;;25.20;99.90;;;;;;4133224;28;20634;-92
2022/05/09 09:18:19;;;;;;;10.52;1.40;;;25.10;99.90;;;;;;4133057;28;20181;-91
2022/05/09 09:20:26;;;;;;;4.55;1.20;;;25.30;99.90;;;;;;4132914;28;20192;-92
2022/05/09 09:22:38;;;;;;;7.50;1.77;;;25.00;99.90;;;;;;4132988;28;20270;-92
2022/05/09 09:25:05;;;;;;;6.22;1.50;;;24.80;99.90;;;;;;4132968;28;20300;-93
2022/05/09 09:27:24;;;;;;;5.80;1.52;;;25.20;99.90;;;;;;4116761;28;20178;-92
2022/05/09 09:29:30;;;;;;;8.50;1.48;;;25.60;99.90;;;;;;4116843;28;20197;-92
2022/05/09 09:31:36;;;;;;;3.63;1.50;;;25.60;99.90;;;;;;4116557;28;20222;-93
2022/05/09 09:33:44;;;;;;;4.30;1.40;;;25.20;99.90;;;;;;4132724;28;20268;-92
2022/05/09 09:36:00;;;;;;;4.40;1.25;;;25.30;99.90;;;;;;4132787;28;20189;-92
2022/05/09 09:38:13;;;;;;;4.65;1.33;;;26.40;99.90;;;;;;4148885;28;20185;-90
2022/05/09 09:40:14;;;;;;;10.30;1.80;;;26.10;99.90;;;;;;4115231;28;20228;-92
2022/05/09 09:42:15;;;;;;;7.95;1.70;;;26.20;99.90;;;;;;4116262;28;20261;-93
2022/05/09 09:44:20;;;;;;;5.55;1.80;;;25.80;99.90;;;;;;4132643;28;20650;-91
2022/05/09 09:46:21;;;;;;;7.38;1.50;;;25.50;99.90;;;;;;4132456;28;20174;-91
2022/05/09 09:48:23;;;;;;;7.38;1.50;;;25.50;99.90;;;;;;4148871;28;20181;-91
2022/05/09 09:50:25;;;;;;;6.63;1.52;;;26.00;99.90;;;;;;4132666;28;20162;-91
2022/05/09 09:52:52;;;;;;;7.25;1.65;;;26.30;99.90;;;;;;4148926;28;20313;-91
2022/05/09 09:55:17;;;;;;;5.55;1.40;;;26.80;99.90;;;;;;4132716;28;20170;-90
2022/05/09 09:57:19;;;;;;;5.03;1.48;;;26.80;99.90;;;;;;4100576;28;20665;-91
2022/05/09 09:59:29;;;;;;;6.60;1.67;;;26.80;99.90;;;;;;4148828;28;20298;-93
2022/05/09 10:01:32;;;;;;;5.15;1.73;;;26.60;99.90;;;;;;4132704;28;20177;-95
2022/05/09 10:03:35;;;;;;;5.68;1.73;;;26.80;99.90;;;;;;4132425;28;20622;-92
2022/05/09 10:05:37;;;;;;;10.00;1.90;;;26.40;99.90;;;;;;4132601;28;20269;-91
2022/05/09 10:07:43;;;;;;;2.97;1.35;;;26.80;99.90;;;;;;4116444;28;20184;-91
2022/05/09 10:10:00;;;;;;;9.05;1.45;;;26.70;99.90;;;;;;4132662;28;20197;-90
2022/05/09 10:12:21;;;;;;;4.38;1.60;;;25.40;99.90;;;;;;4148694;28;20208;-89
2022/05/09 10:14:33;;;;;;;5.68;1.48;;;25.30;99.90;;;;;;4132184;28;20582;-90
2022/05/09 10:16:45;;;;;;;6.47;1.67;;;25.10;99.90;;;;;;4132389;28;20188;-90
2022/05/09 10:18:46;;;;;;;3.55;1.20;;;24.80;99.90;;;;;;4148554;28;20201;-90
2022/05/09 10:20:51;;;;;;;3.95;1.50;;;25.20;99.90;;;;;;4132303;28;20251;-91
2022/05/09 10:25:24;;;;;;;7.32;1.30;;;25.00;99.90;;;;;;4124324;28;20185;-91
2022/05/09 10:27:26;;;;;;;4.95;1.40;;;24.90;99.90;;;;;;4132498;28;20189;-92
2022/05/09 10:29:33;;;;;;;6.65;1.42;;;24.10;99.90;;;;;;4131889;28;20221;-92
2022/05/09 10:31:39;;;;;;;9.73;2.05;;;24.00;99.90;;;;;;4131827;28;20229;-92
2022/05/09 10:33:49;;;;;;;12.55;1.73;;;23.80;99.90;;;;;;4116330;28;20175;-93
2022/05/09 10:35:53;;;;;;;6.88;1.90;;;23.70;99.90;;;;;;4115941;28;20634;-92
2022/05/09 10:37:58;;;;;;;5.90;1.92;;;23.70;99.90;;;;;;4131855;28;20165;-91
2022/05/09 10:40:09;;;;;;;12.20;1.85;;;24.00;99.90;;;;;;4148166;28;20201;-91
2022/05/09 10:42:10;;;;;;;10.10;2.53;;;24.50;99.90;;;;;;4115947;28;20542;-91
2022/05/09 10:44:39;;;;;;;8.50;2.47;;;24.70;99.90;;;;;;4116003;28;20206;-92
2022/05/09 10:46:54;;;;;;;9.20;2.33;;;24.70;99.90;;;;;;4131790;28;20176;-92
2022/05/09 10:49:03;;;;;;;7.68;2.13;;;24.80;99.90;;;;;;4147848;28;20769;-93
2022/05/09 10:51:17;;;;;;;8.23;2.45;;;24.30;99.90;;;;;;4131655;28;20558;-91
2022/05/09 10:53:33;;;;;;;5.07;2.03;;;24.30;99.90;;;;;;4132186;28;20185;-91
2022/05/09 10:55:51;;;;;;;11.77;1.90;;;23.90;99.90;;;;;;4132135;28;20187;-91
2022/05/09 10:58:08;;;;;;;8.25;2.25;;;23.60;99.90;;;;;;4147910;28;20172;-92
2022/05/09 11:00:19;;;;;;;7.85;2.30;;;23.80;99.90;;;;;;4132029;28;20196;-91
2022/05/09 11:02:31;;;;;;;9.23;1.98;;;24.10;99.90;;;;;;4131687;28;20173;-93
2022/05/09 11:04:34;;;;;;;5.38;2.10;;;24.30;99.90;;;;;;4131736;28;20260;-92
2022/05/09 11:06:59;;;;;;;6.35;2.47;;;24.60;99.90;;;;;;4147800;28;20177;-91
2022/05/09 11:09:16;;;;;;;7.07;2.08;;;24.80;99.90;;;;;;4131440;28;20200;-90
2022/05/09 11:11:29;;;;;;;6.60;2.15;;;24.90;99.90;;;;;;4147708;28;20212;-91
2022/05/09 11:13:55;;;;;;;6.65;2.60;;;25.00;99.90;;;;;;4131292;28;20217;-92
2022/05/09 11:16:08;;;;;;;9.75;2.80;;;25.00;99.90;;;;;;4113270;28;20189;-93
2022/05/09 11:18:36;;;;;;;8.80;2.67;;;25.00;99.90;;;;;;4132126;28;20169;-90
2022/05/09 11:20:46;;;;;;;7.57;2.50;;;24.60;99.90;;;;;;4131296;28;20237;-93
2022/05/09 11:23:08;;;;;;;10.35;2.80;;;24.50;99.90;;;;;;4147715;28;20161;-92
2022/05/09 11:25:42;;;;;;;7.18;2.95;;;24.50;99.90;;;;;;4131170;28;20173;-91
2022/05/09 11:28:19;;;;;;;11.48;2.63;;;24.80;99.90;;;;;;4131713;28;20277;-91
2022/05/09 11:30:55;;;;;;;9.45;2.08;;;25.20;99.90;;;;;;4104231;28;20213;-93
2022/05/09 11:33:19;;;;;;;4.60;2.38;;;25.10;99.90;;;;;;4112958;28;20204;-91
2022/05/09 11:35:33;;;;;;;5.55;2.58;;;24.70;99.90;;;;;;4115056;28;20166;-91
2022/05/09 11:37:52;;;;;;;8.32;3.20;;;24.80;99.90;;;;;;4131058;28;20251;-92
2022/05/09 11:40:11;;;;;;;7.18;3.15;;;25.10;99.90;;;;;;4115286;28;20198;-92
2022/05/09 11:44:56;;;;;;;8.13;2.90;;;25.30;99.90;;;;;;4147666;28;20185;-95
2022/05/09 11:46:58;;;;;;;5.13;2.85;;;25.60;99.90;;;;;;4131096;28;20166;-92
2022/05/09 11:48:59;;;;;;;12.93;3.50;;;25.60;99.90;;;;;;4130780;28;20224;-92
2022/05/09 11:51:38;;;;;;;10.73;2.75;;;25.30;99.90;;;;;;4131300;28;20193;-93
2022/05/09 11:53:46;;;;;;;7.45;2.90;;;25.10;99.90;;;;;;4109325;28;20185;-92
2022/05/09 11:55:48;;;;;;;7.55;2.92;;;25.20;99.90;;;;;;4115000;28;20212;-92
2022/05/09 11:57:55;;;;;;;10.73;3.35;;;25.40;99.90;;;;;;4114786;28;20182;-94
2022/05/09 11:59:58;;;;;;;8.82;3.08;;;25.60;99.90;;;;;;4147459;28;20196;-93
2022/05/09 12:02:11;;;;;;;8.70;2.47;;;25.70;99.90;;;;;;4147255;28;20172;-92
2022/05/09 12:04:33;;;;;;;5.85;2.70;;;26.00;99.90;;;;;;4133814;28;20197;-92
2022/05/09 12:06:38;;;;;;;9.35;3.08;;;26.00;99.90;;;;;;4134168;28;20181;-92
2022/05/09 12:08:48;;;;;;;9.40;2.80;;;26.40;99.90;;;;;;4134325;28;20186;-93
2022/05/09 12:11:10;;;;;;;8.35;3.05;;;26.60;99.90;;;;;;4150617;28;20176;-93
2022/05/09 12:13:19;;;;;;;4.68;2.53;;;26.30;99.90;;;;;;4150242;28;20180;-92
2022/05/09 12:15:24;;;;;;;10.90;3.00;;;26.10;99.90;;;;;;4134414;28;20178;-93
2022/05/09 12:17:35;;;;;;;6.43;3.10;;;26.20;99.90;;;;;;4118331;28;20189;-92
2022/05/09 12:19:37;;;;;;;6.60;3.08;;;26.40;99.90;;;;;;4117844;28;20762;-93
2022/05/09 12:21:38;;;;;;;5.60;2.63;;;26.40;99.90;;;;;;4134143;28;20239;-92
2022/05/09 12:23:39;;;;;;;7.45;3.03;;;26.40;99.90;;;;;;4118132;28;20256;-93
2022/05/09 12:25:42;;;;;;;11.27;3.28;;;26.40;99.90;;;;;;4117951;28;20178;-94
2022/05/09 12:28:05;;;;;;;11.15;3.90;;;26.30;99.90;;;;;;4134010;28;20176;-93
2022/05/09 12:30:44;;;;;;;8.43;3.00;;;26.50;99.90;;;;;;4150519;28;20193;-92
2022/05/09 12:32:51;;;;;;;7.15;2.95;;;26.50;99.90;;;;;;4117810;28;20190;-93
2022/05/09 12:34:55;;;;;;;8.93;3.25;;;26.70;99.90;;;;;;4117977;28;20258;-92
2022/05/09 12:37:02;;;;;;;9.38;3.80;;;26.50;99.90;;;;;;4118189;28;20190;-93
2022/05/09 12:39:09;;;;;;;10.18;3.10;;;26.60;99.90;;;;;;4133772;28;20221;-92
2022/05/09 12:41:16;;;;;;;8.85;3.25;;;26.10;99.90;;;;;;4133995;28;20250;-92
2022/05/09 12:43:21;;;;;;;7.35;3.63;;;26.10;99.90;;;;;;4117630;28;20430;-93
2022/05/09 12:45:23;;;;;;;6.70;3.30;;;26.30;99.90;;;;;;4117928;28;20272;-92
2022/05/09 12:47:30;;;;;;;8.20;3.97;;;26.20;99.90;;;;;;4133641;28;20174;-93
2022/05/09 12:49:48;;;;;;;10.35;3.50;;;26.70;99.90;;;;;;4133700;28;20194;-92
2022/05/09 12:51:52;;;;;;;11.45;4.05;;;26.60;99.90;;;;;;4133728;28;20215;-92
2022/05/09 12:53:54;;;;;;;6.60;3.85;;;26.90;99.90;;;;;;4117719;28;20650;-94
2022/05/09 12:55:55;;;;;;;7.32;3.67;;;26.90;99.90;;;;;;4133596;28;20637;-93
2022/05/09 12:57:56;;;;;;;21.60;4.72;;;26.60;99.90;;;;;;4133709;28;20550;-92
2022/05/09 12:59:57;;;;;;;15.48;4.22;;;26.40;99.90;;;;;;4133750;28;20204;-93
2022/05/09 13:02:01;;;;;;;12.80;3.83;;;26.50;99.90;;;;;;4133607;28;20174;-92
2022/05/09 13:04:28;;;;;;;13.90;4.93;;;26.40;99.90;;;;;;4134237;28;20252;-94
2022/05/09 13:06:44;;;;;;;9.80;4.25;;;26.60;99.90;;;;;;4133402;28;20182;-92
2022/05/09 13:08:45;;;;;;;10.82;5.20;;;26.90;99.90;;;;;;4133381;28;20197;-93
2022/05/09 13:10:58;;;;;;;11.55;5.40;;;27.00;99.90;;;;;;4117375;28;20181;-92
2022/05/09 13:13:02;;;;;;;7.78;4.45;;;26.90;99.90;;;;;;4117459;28;20177;-94
2022/05/09 13:15:20;;;;;;;14.27;4.47;;;26.80;99.90;;;;;;4133321;28;20209;-94
2022/05/09 13:17:46;;;;;;;10.25;4.32;;;26.80;99.90;;;;;;4133245;28;20634;-94
2022/05/09 13:19:48;;;;;;;12.20;5.25;;;26.80;99.90;;;;;;4133161;28;20650;-92
2022/05/09 13:21:49;;;;;;;14.95;5.07;;;26.80;99.90;;;;;;4149795;28;20625;-92
2022/05/09 13:23:50;;;;;;;19.17;6.35;;;27.00;99.90;;;;;;4117435;28;20181;-95
2022/05/09 13:26:00;;;;;;;28.55;6.63;;;26.70;99.90;;;;;;4117384;28;20261;-94
2022/05/09 13:28:10;;;;;;;8.07;5.47;;;26.70;99.90;;;;;;4133371;28;20203;-95
2022/05/09 13:30:12;;;;;;;13.82;5.13;;;26.50;99.90;;;;;;4133363;28;20224;-94
2022/05/09 13:32:29;;;;;;;11.90;5.80;;;26.50;99.90;;;;;;4149488;28;20209;-94
2022/05/09 13:34:45;;;;;;;12.98;5.65;;;26.70;99.90;;;;;;4133290;28;20627;-94
2022/05/09 13:36:49;;;;;;;14.80;5.63;;;26.60;99.90;;;;;;4133158;28;20185;-93
2022/05/09 13:38:50;;;;;;;9.40;5.43;;;26.50;99.90;;;;;;4132876;28;20300;-93
2022/05/09 13:41:01;;;;;;;10.13;5.95;;;26.60;99.90;;;;;;4117080;28;20213;-93
2022/05/09 13:43:03;;;;;;;13.07;5.25;;;27.00;99.90;;;;;;4116677;28;20176;-94
2022/05/09 13:45:10;;;;;;;8.63;4.47;;;27.20;99.90;;;;;;4133275;28;20224;-94
2022/05/09 13:47:19;;;;;;;11.48;4.50;;;27.20;99.90;;;;;;4133260;28;20173;-94